createdAt,value
2023-02-24T00:00:01.146Z,2.34
2023-02-24T00:05:00.612Z,2.32
2023-02-24T00:10:00.654Z,2.32
2023-02-24T00:15:00.633Z,2.34
2023-02-24T00:20:00.600Z,2.38
2023-02-24T00:25:00.633Z,2.41
2023-02-24T00:30:02.058Z,2.41
2023-02-24T00:35:00.635Z,2.46
2023-02-24T00:40:00.691Z,2.42
2023-02-24T00:45:00.636Z,2.31
2023-02-24T00:50:00.621Z,2.21
2023-02-24T00:55:00.654Z,2.10
2023-02-24T01:00:01.218Z,1.99
2023-02-24T01:05:01.339Z,1.89
2023-02-24T01:10:00.671Z,1.77
2023-02-24T01:15:00.787Z,1.69
2023-02-24T01:20:00.634Z,1.63
2023-02-24T01:25:00.637Z,1.60
2023-02-24T01:30:00.659Z,1.54
2023-02-24T01:35:00.641Z,1.48
2023-02-24T01:40:00.670Z,1.46
2023-02-24T01:45:06.236Z,1.37
2023-02-24T01:50:00.672Z,1.29
2023-02-24T01:55:07.538Z,1.15
2023-02-24T02:00:02.952Z,1.08
2023-02-24T02:05:03.996Z,1.04
2023-02-24T02:10:00.850Z,1.00
2023-02-24T02:15:00.923Z,0.97
2023-02-24T02:20:20.537Z,0.97
2023-02-24T02:25:12.409Z,0.96
2023-02-24T02:30:16.101Z,0.94
2023-02-24T02:35:01.634Z,0.93
2023-02-24T02:40:16.878Z,0.84
2023-02-24T02:45:07.766Z,0.81
2023-02-24T02:50:06.845Z,0.79
2023-02-24T02:55:06.425Z,0.73
2023-02-24T03:00:07.653Z,0.60
2023-02-24T03:05:02.580Z,0.55
2023-02-24T03:10:06.429Z,0.56
2023-02-24T03:15:04.661Z,0.58
2023-02-24T03:20:10.321Z,0.60
2023-02-24T03:25:02.460Z,0.62
2023-02-24T03:30:09.000Z,0.57
2023-02-24T03:35:11.166Z,0.58
2023-02-24T03:40:07.729Z,0.59
2023-02-24T03:45:00.965Z,0.60
2023-02-24T03:50:00.716Z,0.60
2023-02-24T03:55:00.623Z,0.59
2023-02-24T04:00:08.000Z,0.59
2023-02-24T04:05:08.833Z,0.60
2023-02-24T04:10:09.285Z,0.65
2023-02-24T04:15:15.148Z,0.73
2023-02-24T04:20:04.702Z,0.85
2023-02-24T04:25:02.714Z,0.94
2023-02-24T04:30:01.838Z,0.97
2023-02-24T04:35:01.912Z,1.01
2023-02-24T04:40:01.710Z,1.02
2023-02-24T04:45:00.678Z,1.05
2023-02-24T04:50:00.616Z,1.08
2023-02-24T04:55:00.640Z,1.15
2023-02-24T05:00:01.086Z,1.24
2023-02-24T05:05:00.718Z,1.32
2023-02-24T05:10:00.657Z,1.38
2023-02-24T05:15:00.633Z,1.44
2023-02-24T05:20:00.680Z,1.50
2023-02-24T05:25:00.731Z,1.59
2023-02-24T05:30:00.628Z,1.61
2023-02-24T05:35:01.121Z,1.66
2023-02-24T05:40:00.637Z,1.70
2023-02-24T05:45:00.903Z,1.73
2023-02-24T05:50:00.644Z,1.78
2023-02-24T05:55:00.648Z,1.81
2023-02-24T06:00:03.486Z,1.86
2023-02-24T06:05:00.684Z,1.88
2023-02-24T06:10:01.989Z,1.90
2023-02-24T06:15:01.294Z,1.93
2023-02-24T06:20:00.764Z,1.96
2023-02-24T06:25:00.641Z,1.95
2023-02-24T06:30:01.486Z,2.00
2023-02-24T06:35:01.355Z,2.05
2023-02-24T06:40:00.693Z,2.08
2023-02-24T06:45:00.611Z,2.10
2023-02-24T06:50:00.618Z,2.17
2023-02-24T06:55:01.032Z,2.20
2023-02-24T07:00:02.430Z,2.26
2023-02-24T07:05:00.618Z,2.34
2023-02-24T07:10:00.864Z,2.38
2023-02-24T07:15:00.627Z,2.40
2023-02-24T07:20:00.629Z,2.48
2023-02-24T07:25:00.892Z,2.55
2023-02-24T07:30:00.632Z,2.62
2023-02-24T07:35:00.630Z,2.68
2023-02-24T07:40:00.685Z,2.72
2023-02-24T07:45:00.681Z,2.75
2023-02-24T07:50:01.147Z,2.81
2023-02-24T07:55:00.685Z,2.86
2023-02-24T08:00:01.349Z,2.95
2023-02-24T08:05:00.636Z,3.09
2023-02-24T08:10:00.666Z,3.20
2023-02-24T08:15:01.307Z,3.32
2023-02-24T08:20:00.710Z,3.48
2023-02-24T08:25:00.685Z,3.57
2023-02-24T08:30:00.632Z,3.58
2023-02-24T08:35:02.109Z,3.58
2023-02-24T08:40:00.811Z,3.63
2023-02-24T08:45:01.148Z,3.66
2023-02-24T08:50:01.338Z,3.68
2023-02-24T08:55:00.690Z,3.77
2023-02-24T09:00:01.206Z,3.85
2023-02-24T09:05:04.355Z,3.96
2023-02-24T09:10:02.978Z,4.09
2023-02-24T09:15:02.256Z,4.11
2023-02-24T09:20:00.659Z,4.15
2023-02-24T09:25:13.037Z,4.14
2023-02-24T09:30:00.654Z,4.13
2023-02-24T09:35:00.632Z,4.14
2023-02-24T09:40:00.678Z,4.19
2023-02-24T09:45:04.960Z,4.27
2023-02-24T09:50:05.450Z,4.36
2023-02-24T09:55:00.709Z,4.41
2023-02-24T10:00:07.385Z,4.48
2023-02-24T10:05:13.625Z,4.63
2023-02-24T10:10:10.303Z,4.77
2023-02-24T10:15:12.525Z,4.91
2023-02-24T10:20:13.519Z,4.91
2023-02-24T10:30:12.658Z,4.96
2023-02-24T10:35:01.390Z,4.94
2023-02-24T10:40:04.180Z,4.93
2023-02-24T10:45:22.012Z,4.90
2023-02-24T10:50:03.461Z,4.90
2023-02-24T10:55:04.129Z,4.88
2023-02-24T11:00:11.475Z,4.87
2023-02-24T11:05:07.492Z,4.82
2023-02-24T11:10:06.045Z,4.86
2023-02-24T11:15:03.628Z,4.88
2023-02-24T11:20:06.031Z,4.87
2023-02-24T11:25:15.050Z,4.89
2023-02-24T11:30:16.731Z,4.92
2023-02-24T11:35:10.562Z,4.93
2023-02-24T11:40:14.740Z,4.94
2023-02-24T11:45:13.805Z,4.99
2023-02-24T11:50:15.352Z,5.06
2023-02-24T11:55:03.951Z,5.12
2023-02-24T12:00:07.078Z,5.16
2023-02-24T12:05:10.163Z,5.16
2023-02-24T12:10:16.260Z,5.14
2023-02-24T12:15:09.250Z,5.14
2023-02-24T12:20:05.418Z,5.14
2023-02-24T12:25:00.791Z,5.17
2023-02-24T12:30:15.958Z,5.22
2023-02-24T12:35:05.112Z,5.28
2023-02-24T12:40:00.657Z,5.31
2023-02-24T12:45:16.200Z,5.42
2023-02-24T12:50:13.986Z,5.64
2023-02-24T12:55:03.895Z,5.83
2023-02-24T13:00:09.629Z,6.18
2023-02-24T13:05:15.128Z,6.78
2023-02-24T13:10:15.884Z,7.27
2023-02-24T13:15:03.105Z,7.65
2023-02-24T13:20:11.018Z,7.73
2023-02-24T13:25:07.174Z,7.58
2023-02-24T13:30:15.786Z,7.45
2023-02-24T13:35:04.874Z,7.29
2023-02-24T13:40:13.843Z,7.18
2023-02-24T13:45:04.402Z,7.15
2023-02-24T13:50:16.281Z,7.55
2023-02-24T13:55:10.584Z,8.09
2023-02-24T14:00:13.987Z,8.04
2023-02-24T14:05:10.297Z,8.19
2023-02-24T14:10:04.521Z,8.33
2023-02-24T14:15:02.876Z,8.67
2023-02-24T14:20:11.589Z,9.23
2023-02-24T14:25:01.683Z,9.54
2023-02-24T14:30:00.782Z,9.59
2023-02-24T14:35:00.727Z,9.02
2023-02-24T14:40:00.837Z,7.84
2023-02-24T14:45:00.670Z,7.21
2023-02-24T14:50:03.702Z,7.16
2023-02-24T14:55:06.897Z,7.59
2023-02-24T15:00:06.842Z,8.04
2023-02-24T15:05:00.770Z,8.02
2023-02-24T15:10:02.410Z,8.11
2023-02-24T15:15:05.931Z,8.20
2023-02-24T15:20:00.635Z,8.09
2023-02-24T15:25:20.344Z,7.78
2023-02-24T15:30:06.727Z,7.67
2023-02-24T15:35:00.844Z,7.59
2023-02-24T15:40:06.697Z,7.28
2023-02-24T15:45:03.714Z,7.25
2023-02-24T15:50:00.610Z,7.15
2023-02-24T15:55:00.936Z,7.14
2023-02-24T16:00:01.485Z,7.24
2023-02-24T16:05:00.656Z,7.22
2023-02-24T16:10:01.931Z,7.16
2023-02-24T16:15:03.369Z,7.05
2023-02-24T16:20:01.545Z,6.88
2023-02-24T16:25:01.207Z,6.71
2023-02-24T16:30:00.841Z,6.62
2023-02-24T16:35:00.641Z,6.53
2023-02-24T16:40:01.105Z,6.41
2023-02-24T16:45:00.745Z,6.32
2023-02-24T16:50:00.915Z,6.19
2023-02-24T16:55:00.646Z,6.04
2023-02-24T17:00:01.093Z,5.86
2023-02-24T17:05:00.822Z,5.77
2023-02-24T17:10:00.643Z,5.66
2023-02-24T17:15:00.698Z,5.65
2023-02-24T17:20:00.963Z,5.64
2023-02-24T17:25:00.659Z,5.59
2023-02-24T17:30:00.671Z,5.51
2023-02-24T17:35:00.674Z,5.35
2023-02-24T17:40:00.701Z,5.16
2023-02-24T17:45:00.814Z,5.08
2023-02-24T17:50:01.380Z,5.05
2023-02-24T17:55:00.629Z,4.96
2023-02-24T18:00:01.648Z,4.86
2023-02-24T18:05:00.931Z,4.86
2023-02-24T18:10:00.723Z,4.88
2023-02-24T18:15:08.276Z,4.97
2023-02-24T18:20:00.777Z,5.05
2023-02-24T18:25:00.620Z,5.12
2023-02-24T18:30:00.701Z,5.11
2023-02-24T18:35:00.688Z,5.06
2023-02-24T18:40:00.638Z,4.94
2023-02-24T18:45:00.655Z,4.79
2023-02-24T18:50:00.662Z,4.63
2023-02-24T18:55:00.642Z,4.53
2023-02-24T19:00:02.173Z,4.46
2023-02-24T19:05:00.785Z,4.38
2023-02-24T19:10:00.625Z,4.28
2023-02-24T19:15:00.899Z,4.17
2023-02-24T19:20:00.633Z,4.09
2023-02-24T19:25:00.684Z,3.99
2023-02-24T19:30:00.991Z,3.93
2023-02-24T19:35:01.000Z,3.84
2023-02-24T19:40:00.810Z,3.76
2023-02-24T19:45:00.626Z,3.75
2023-02-24T19:50:00.641Z,3.77
2023-02-24T19:55:00.807Z,3.88
2023-02-24T20:00:02.591Z,3.97
2023-02-24T20:05:00.680Z,4.05
2023-02-24T20:10:00.745Z,4.13
2023-02-24T20:15:00.735Z,4.17
2023-02-24T20:20:00.710Z,4.13
2023-02-24T20:25:00.643Z,4.10
2023-02-24T20:30:00.691Z,4.08
2023-02-24T20:35:00.814Z,4.08
2023-02-24T20:40:00.677Z,4.15
2023-02-24T20:45:00.639Z,4.20
2023-02-24T20:50:00.696Z,4.26
2023-02-24T20:55:00.669Z,4.29
2023-02-24T21:00:03.990Z,4.30
2023-02-24T21:05:00.772Z,4.29
2023-02-24T21:10:00.745Z,4.30
2023-02-24T21:15:00.681Z,4.29
2023-02-24T21:20:00.965Z,4.21
2023-02-24T21:25:00.619Z,4.12
2023-02-24T21:30:00.659Z,4.03
2023-02-24T21:35:00.946Z,4.05
2023-02-24T21:40:00.668Z,4.08
2023-02-24T21:45:00.728Z,4.14
2023-02-24T21:50:01.059Z,4.12
2023-02-24T21:55:00.760Z,3.98
2023-02-24T22:00:01.156Z,3.86
2023-02-24T22:05:00.701Z,3.79
2023-02-24T22:10:00.655Z,3.73
2023-02-24T22:15:00.642Z,3.66
2023-02-24T22:20:01.495Z,3.58
2023-02-24T22:25:00.674Z,3.52
2023-02-24T22:30:00.965Z,3.40
2023-02-24T22:35:00.784Z,3.31
2023-02-24T22:40:00.649Z,3.21
2023-02-24T22:45:02.042Z,3.16
2023-02-24T22:50:00.623Z,3.14
2023-02-24T22:55:00.679Z,3.10
2023-02-24T23:00:01.118Z,3.07
2023-02-24T23:05:00.651Z,3.05
2023-02-24T23:10:00.681Z,2.98
2023-02-24T23:15:00.717Z,2.92
2023-02-24T23:20:00.692Z,2.84
2023-02-24T23:25:00.662Z,2.80
2023-02-24T23:30:00.645Z,2.79
2023-02-24T23:35:01.135Z,2.76
2023-02-24T23:40:00.696Z,2.75
2023-02-24T23:45:00.647Z,2.74
2023-02-24T23:50:00.665Z,2.75
2023-02-24T23:55:00.697Z,2.81
